Gualala, CA (95445)

4:44 PM PST on February 14, 2016 (GMT -0800)
Ocean Ridge Gualala | | Change Station
CLOSE
Current Station
Personal Weather Station
Location: Gualala, CA
Elevation: 932 ft
Nearby Weather Stations

Elev 932 ft 38.80 °N, 123.54 °W | Updated 10 minutes ago

Partly Cloudy
Partly Cloudy
61.7 °F
Feels Like 61.7 °F
N
2.2
Wind Variable Wind from NW

Today
High -- | Low -- °F
--% Chance of Precip.
Yesterday
High -- | Low -- °F
Precip. -- in
Pressure 30.22 in
Visibility 10.0 miles
Clouds Clear
Dew Point 53 °F
Humidity 74%
Rainfall 0.00 in
Snow Depth Not available.
7:07 AM 5:50 PM
Waxing Crescent, 47% visible
METAR KUKI 142356Z AUTO 31012G21KT 10SM CLR 23/10 A3024 RMK AO2 SLP234 T02330100 10244 20167 56019
Pressure 30.22 in
Visibility 10.0 miles
Clouds Clear
Dew Point 53 °F
Humidity 74%
Rainfall 0.00 in
Snow Depth Not available.
7:07 AM 5:50 PM
Waxing Crescent, 47% visible
METAR KUKI 142356Z AUTO 31012G21KT 10SM CLR 23/10 A3024 RMK AO2 SLP234 T02330100 10244 20167 56019

10-Day Weather Forecast

Almanac

Astronomy

Feb. 14, 2016 Rise Set
Actual Time
Civil Twilight
Nautical Twilight
Astronomical Twilight
Moon
Length of Visible Light
Length of Day
Tomorrow will be .
, % of the Moon is Illuminated

Today's Extremes

State Highs State Lows

Community

WunderPhotos

Upload Photos

1,892,952 photos uploaded!

WunderBlog® & News

Nearby

Air Quality

  Air Quality AQ Index Pollutant
Not available.

Snow Depth

Station Depth Elevation

Earthquake Activity

City Distance Mag. Time & Date
Minimum magnitude displayed is 2.5.

Coastal Water Temperatures

Place Temperature

Stations

Nearby Weather Stations

Station Location Temp. Windchill Dew Point Humidity Wind Precip. Elev Updated Type
                   

Watches & Warnings

There are currently no watches in effect.